Time;durP1;ratioP1;P1;durP2;ratioP2;P2;SDS_P1;SDS_P2;PMS_P1;PMS_P2;Temp;Humidity;BMP_temperature;BMP_pressure;BME280_temperature;BME280_humidity;BME280_pressure;Samples;Min_cycle;Max_cycle;Signal;HPM_P1;HPM_P2
2022/03/08 00:01:53;;;;;;;20.10;10.70;;;;;;;-0.07;66.11;100709.86;105901;1271;137922;-75
2022/03/08 00:04:27;;;;;;;19.90;9.20;;;;;;;-0.08;66.13;100710.17;105998;1271;110975;-75
2022/03/08 00:07:01;;;;;;;20.00;9.70;;;;;;;-0.10;66.25;100712.54;106040;1273;110830;-74
2022/03/08 00:09:34;;;;;;;19.60;9.60;;;;;;;-0.10;66.21;100710.30;107464;1273;138333;-75
2022/03/08 00:12:07;;;;;;;19.20;9.20;;;;;;;-0.10;66.33;100707.75;107548;1272;94808;-75
2022/03/08 00:14:39;;;;;;;18.60;8.40;;;;;;;-0.07;66.40;100710.36;107483;1273;139168;-75
2022/03/08 00:17:14;;;;;;;20.70;8.90;;;;;;;-0.02;66.42;100708.40;107571;1273;110387;-75
2022/03/08 00:19:46;;;;;;;20.50;9.80;;;;;;;0.01;66.08;100704.54;107466;1273;138756;-76
2022/03/08 00:22:19;;;;;;;18.50;9.20;;;;;;;0.00;66.14;100701.95;107648;1271;107900;-76
2022/03/08 00:24:52;;;;;;;22.20;9.90;;;;;;;-0.03;66.28;100697.61;107631;1271;94935;-76
2022/03/08 00:27:24;;;;;;;19.90;9.80;;;;;;;-0.05;66.20;100691.60;107456;1273;138246;-76
2022/03/08 00:29:56;;;;;;;21.60;10.30;;;;;;;-0.09;66.51;100687.94;107454;1271;192902;-76
2022/03/08 00:32:32;;;;;;;20.50;9.30;;;;;;;-0.15;66.34;100683.21;107422;1273;138136;-76
2022/03/08 00:35:06;;;;;;;18.40;10.00;;;;;;;-0.23;66.12;100677.92;107575;1271;106948;-76
2022/03/08 00:37:39;;;;;;;18.90;9.30;;;;;;;-0.29;66.24;100683.29;107467;1273;94896;-75
2022/03/08 00:40:13;;;;;;;20.00;8.90;;;;;;;-0.34;66.71;100681.67;107533;1271;139029;-76
2022/03/08 00:42:45;;;;;;;22.00;8.70;;;;;;;-0.37;66.51;100685.01;107624;1271;111264;-76
2022/03/08 00:45:18;;;;;;;16.30;8.50;;;;;;;-0.36;66.89;100688.60;107465;1273;139514;-76
2022/03/08 00:47:51;;;;;;;18.80;9.50;;;;;;;-0.36;66.84;100691.86;107555;1273;107795;-75
2022/03/08 00:50:25;;;;;;;18.80;9.50;;;;;;;-0.33;66.84;100697.08;107497;1271;137861;-76
2022/03/08 00:52:59;;;;;;;20.80;10.20;;;;;;;-0.31;66.85;100695.40;107541;1273;94867;-75
2022/03/08 00:55:34;;;;;;;21.70;10.30;;;;;;;-0.32;66.90;100694.54;107615;1270;110790;-76
2022/03/08 00:58:07;;;;;;;20.00;10.50;;;;;;;-0.33;66.99;100700.32;107450;1272;138301;-76
2022/03/08 01:00:42;;;;;;;18.70;10.30;;;;;;;-0.37;66.66;100701.06;107632;1271;107829;-76
2022/03/08 01:03:15;;;;;;;19.10;10.70;;;;;;;-0.41;66.75;100698.27;106172;1271;138323;-76
2022/03/08 01:05:48;;;;;;;24.00;11.60;;;;;;;-0.47;66.83;100703.63;106004;1271;96516;-76
2022/03/08 01:08:20;;;;;;;22.10;11.00;;;;;;;-0.55;67.23;100702.08;106010;1271;137921;-77
2022/03/08 01:10:53;;;;;;;18.90;9.80;;;;;;;-0.63;67.20;100701.09;105883;1270;109039;-76
2022/03/08 01:13:25;;;;;;;20.30;10.20;;;;;;;-0.68;67.37;100695.85;105904;1271;109598;-77
2022/03/08 01:15:57;;;;;;;18.60;8.90;;;;;;;-0.71;67.63;100691.04;105873;1273;138729;-76
2022/03/08 01:18:31;;;;;;;19.90;9.60;;;;;;;-0.73;67.49;100687.55;107570;1270;94675;-77
2022/03/08 01:21:03;;;;;;;18.30;9.40;;;;;;;-0.73;67.77;100685.84;107589;1270;138863;-76
2022/03/08 01:23:36;;;;;;;17.90;9.30;;;;;;;-0.72;67.88;100684.66;107658;1271;109011;-76
2022/03/08 01:26:10;;;;;;;18.70;10.00;;;;;;;-0.76;67.70;100685.61;107465;1272;138829;-76
2022/03/08 01:28:44;;;;;;;17.50;9.60;;;;;;;-0.79;67.60;100684.01;107571;1271;95547;-77
2022/03/08 01:31:16;;;;;;;18.80;10.60;;;;;;;-0.84;67.87;100683.06;107640;1272;94865;-76
2022/03/08 01:33:49;;;;;;;21.90;10.40;;;;;;;-0.89;68.13;100680.41;107530;1271;137749;-76
2022/03/08 01:36:22;;;;;;;18.20;9.90;;;;;;;-0.95;67.80;100674.98;107564;1273;108544;-76
2022/03/08 01:38:54;;;;;;;19.30;9.40;;;;;;;-1.04;68.32;100678.70;107469;1273;138304;-77
2022/03/08 01:41:26;;;;;;;17.90;9.10;;;;;;;-1.12;68.37;100677.67;107557;1271;94984;-76
2022/03/08 01:43:58;;;;;;;18.90;9.60;;;;;;;-1.17;68.32;100678.77;107546;1271;138763;-75
2022/03/08 01:46:31;;;;;;;16.50;8.70;;;;;;;-1.19;68.58;100678.54;107473;1273;110008;-74
2022/03/08 01:49:04;;;;;;;18.60;9.00;;;;;;;-1.19;68.71;100678.54;107653;1271;107986;-76
2022/03/08 01:51:39;;;;;;;19.10;8.60;;;;;;;-1.15;69.05;100675.04;107583;1270;138098;-76
2022/03/08 01:54:11;;;;;;;18.50;8.90;;;;;;;-1.11;68.74;100674.44;107615;1271;97180;-75
2022/03/08 01:56:46;;;;;;;21.30;9.20;;;;;;;-1.13;68.97;100673.05;107565;1270;137418;-76
2022/03/08 01:59:18;;;;;;;16.70;9.20;;;;;;;-1.12;68.68;100671.86;106782;1271;111000;-75
2022/03/08 02:01:52;;;;;;;17.20;9.40;;;;;;;-1.13;69.25;100679.52;105923;1271;139044;-74
2022/03/08 02:04:25;;;;;;;17.90;9.70;;;;;;;-1.17;68.90;100684.55;107102;1270;107074;-75
2022/03/08 02:06:57;;;;;;;22.10;9.20;;;;;;;-1.23;68.96;100688.02;105948;1271;96634;-76
2022/03/08 02:09:29;;;;;;;18.80;9.40;;;;;;;-1.28;69.04;100689.75;107108;1270;137925;-76
2022/03/08 02:12:01;;;;;;;20.00;9.00;;;;;;;-1.32;69.25;100691.05;107624;1271;111409;-74
2022/03/08 02:14:34;;;;;;;20.20;9.00;;;;;;;-1.33;69.24;100690.86;107561;1271;139009;-77
2022/03/08 02:17:08;;;;;;;19.20;9.40;;;;;;;-1.32;69.49;100686.95;107579;1271;107753;-74
2022/03/08 02:19:41;;;;;;;19.40;9.20;;;;;;;-1.33;69.20;100689.14;107658;1271;94798;-75
2022/03/08 02:22:13;;;;;;;19.80;9.20;;;;;;;-1.33;69.22;100688.98;107512;1271;138745;-75
2022/03/08 02:24:46;;;;;;;24.60;9.60;;;;;;;-1.30;69.52;100689.55;107100;1271;110170;-75
2022/03/08 02:27:20;;;;;;;19.10;9.50;;;;;;;-1.30;69.48;100694.16;105940;1271;137839;-75
2022/03/08 02:29:53;;;;;;;23.90;10.00;;;;;;;-1.35;69.35;100696.27;107548;1271;108478;-76
2022/03/08 02:32:25;;;;;;;16.70;9.00;;;;;;;-1.40;69.63;100696.50;107426;1272;139858;-76
2022/03/08 02:35:04;;;;;;;18.10;9.50;;;;;;;-1.43;69.65;100698.81;107656;1270;94931;-76
2022/03/08 02:37:41;;;;;;;18.90;10.10;;;;;;;-1.48;69.74;100699.02;107498;1271;111202;-76
2022/03/08 02:40:16;;;;;;;17.10;9.10;;;;;;;-1.52;69.91;100704.73;107522;1271;139373;-76
2022/03/08 02:42:49;;;;;;;20.10;9.00;;;;;;;-1.56;69.66;100706.86;107592;1271;107947;-76
2022/03/08 02:45:22;;;;;;;21.10;9.20;;;;;;;-1.58;69.79;100705.63;107532;1271;137107;-75
2022/03/08 02:47:55;;;;;;;20.40;9.00;;;;;;;-1.59;69.97;100708.84;107667;1270;95259;-76
2022/03/08 02:50:28;;;;;;;14.80;8.30;;;;;;;-1.58;70.14;100707.17;107534;1271;138242;-75
2022/03/08 02:53:01;;;;;;;16.50;8.70;;;;;;;-1.57;70.07;100710.44;107575;1271;106910;-77
2022/03/08 02:55:36;;;;;;;19.20;9.60;;;;;;;-1.57;70.17;100711.79;107626;1271;107891;-76
2022/03/08 02:58:09;;;;;;;17.80;9.80;;;;;;;-1.55;70.23;100714.38;107527;1271;138133;-76
2022/03/08 03:00:42;;;;;;;21.20;10.10;;;;;;;-1.55;70.05;100716.27;107703;1271;94363;-76
2022/03/08 03:03:14;;;;;;;17.60;9.30;;;;;;;-1.57;70.16;100719.11;107597;1270;138209;-76
2022/03/08 03:05:47;;;;;;;18.10;9.50;;;;;;;-1.60;70.42;100722.46;107713;1270;108342;-76
2022/03/08 03:08:19;;;;;;;19.30;9.70;;;;;;;-1.65;70.29;100723.52;107527;1271;138971;-76
2022/03/08 03:10:51;;;;;;;17.30;9.50;;;;;;;-1.70;70.28;100720.15;107646;1271;94612;-76
2022/03/08 03:13:24;;;;;;;18.70;9.10;;;;;;;-1.70;70.38;100723.55;107668;1271;94971;-76
2022/03/08 03:15:56;;;;;;;19.10;9.20;;;;;;;-1.71;70.81;100724.90;107477;1271;138240;-76
2022/03/08 03:18:29;;;;;;;21.60;9.70;;;;;;;-1.72;70.73;100726.74;107608;1271;107867;-76
2022/03/08 03:21:01;;;;;;;19.40;10.00;;;;;;;-1.75;70.70;100731.80;107515;1273;137856;-76
2022/03/08 03:23:33;;;;;;;19.60;10.30;;;;;;;-1.73;70.80;100735.09;107629;1272;95859;-76
2022/03/08 03:26:06;;;;;;;20.20;10.70;;;;;;;-1.73;70.84;100733.71;107469;1273;138720;-76
2022/03/08 03:28:38;;;;;;;22.20;11.10;;;;;;;-1.75;70.72;100734.00;107679;1271;111592;-76
2022/03/08 03:31:11;;;;;;;23.60;11.20;;;;;;;-1.80;70.65;100737.27;107631;1271;107790;-76
2022/03/08 03:33:43;;;;;;;20.20;10.40;;;;;;;-1.83;70.89;100738.58;107586;1270;137819;-77
2022/03/08 03:36:16;;;;;;;16.70;9.50;;;;;;;-1.85;70.95;100740.91;107649;1270;94651;-75
2022/03/08 03:38:48;;;;;;;19.20;9.90;;;;;;;-1.87;70.88;100747.84;107560;1270;139031;-76
2022/03/08 03:41:20;;;;;;;18.90;9.70;;;;;;;-1.91;71.19;100751.85;107663;1271;110056;-75
2022/03/08 03:43:53;;;;;;;17.20;9.30;;;;;;;-1.94;71.24;100753.81;107478;1272;140374;-72
2022/03/08 03:46:25;;;;;;;16.50;9.40;;;;;;;-1.93;70.95;100751.11;107588;1271;107896;-74
2022/03/08 03:48:58;;;;;;;19.00;9.70;;;;;;;-1.92;71.32;100745.34;106127;1271;96868;-75
2022/03/08 03:51:30;;;;;;;18.70;10.00;;;;;;;-1.94;71.27;100746.83;105994;1270;138945;-75
2022/03/08 03:54:02;;;;;;;19.60;10.00;;;;;;;-1.97;71.18;100743.51;106089;1273;111087;-75
2022/03/08 03:56:35;;;;;;;21.20;10.20;;;;;;;-1.95;71.40;100742.20;107502;1271;138119;-74
2022/03/08 03:59:07;;;;;;;17.70;10.10;;;;;;;-1.97;71.54;100745.23;107655;1270;107832;-74
2022/03/08 04:01:40;;;;;;;18.50;9.80;;;;;;;-1.99;71.32;100746.31;107639;1271;94554;-75
2022/03/08 04:04:12;;;;;;;18.40;9.60;;;;;;;-2.04;71.21;100745.35;107521;1271;137542;-75
2022/03/08 04:06:44;;;;;;;18.50;9.20;;;;;;;-2.05;71.21;100746.02;107613;1271;110036;-74
2022/03/08 04:09:17;;;;;;;18.90;9.80;;;;;;;-2.06;71.61;100751.42;107459;1273;138733;-75
2022/03/08 04:11:49;;;;;;;15.20;8.30;;;;;;;-2.05;71.48;100753.50;107551;1273;107692;-75
2022/03/08 04:14:21;;;;;;;16.60;8.60;;;;;;;-2.03;71.67;100752.52;107526;1273;138727;-75
2022/03/08 04:16:54;;;;;;;17.20;9.30;;;;;;;-1.99;71.50;100750.09;107648;1271;94706;-74
2022/03/08 04:19:27;;;;;;;18.00;9.40;;;;;;;-1.94;71.50;100755.19;107639;1271;109805;-74
2022/03/08 04:22:00;;;;;;;16.80;8.70;;;;;;;-1.90;71.39;100756.29;107548;1271;137646;-74
2022/03/08 04:24:32;;;;;;;16.40;9.00;;;;;;;-1.89;71.38;100761.45;107558;1273;109275;-75
2022/03/08 04:27:05;;;;;;;18.20;8.80;;;;;;;-1.90;71.47;100764.14;107463;1273;138293;-74
2022/03/08 04:29:37;;;;;;;16.90;9.30;;;;;;;-1.93;71.27;100766.27;107641;1272;94639;-74
2022/03/08 04:32:10;;;;;;;17.80;8.90;;;;;;;-1.94;71.46;100760.96;107508;1272;138562;-75
2022/03/08 04:34:42;;;;;;;17.50;9.10;;;;;;;-1.96;71.55;100759.71;107682;1271;109095;-75
2022/03/08 04:37:16;;;;;;;16.50;9.20;;;;;;;-2.02;71.35;100758.70;107635;1271;109278;-75
2022/03/08 04:39:48;;;;;;;17.90;9.20;;;;;;;-2.04;71.39;100764.08;107397;1273;139682;-75
2022/03/08 04:42:20;;;;;;;12.20;7.20;;;;;;;-2.06;71.53;100766.09;107696;1271;94704;-75
2022/03/08 04:44:53;;;;;;;14.60;7.70;;;;;;;-2.03;71.55;100767.35;107474;1273;138254;-75
2022/03/08 04:47:26;;;;;;;11.30;7.10;;;;;;;-2.01;71.33;100763.82;107627;1271;108949;-75
2022/03/08 04:49:58;;;;;;;16.50;7.80;;;;;;;-2.01;71.54;100756.51;107553;1271;138863;-74
2022/03/08 04:52:35;;;;;;;15.90;8.20;;;;;;;-1.99;71.53;100758.25;107478;1272;95053;-74
2022/03/08 04:55:09;;;;;;;15.20;8.00;;;;;;;-2.00;71.24;100757.20;107687;1271;95459;-75
2022/03/08 04:57:45;;;;;;;14.10;8.40;;;;;;;-2.02;71.39;100761.92;107532;1273;137505;-74
2022/03/08 05:00:19;;;;;;;15.80;8.50;;;;;;;-2.05;71.27;100763.21;107456;1273;108026;-76
2022/03/08 05:02:52;;;;;;;20.10;8.00;;;;;;;-2.06;71.37;100767.11;107489;1272;137696;-75
2022/03/08 05:05:33;;;;;;;14.30;8.40;;;;;;;-2.08;71.74;100762.96;107628;1271;94860;-75
2022/03/08 05:08:09;;;;;;;16.20;8.20;;;;;;;-2.12;71.48;100760.30;107420;1273;139138;-76
2022/03/08 05:11:04;;;;;;;14.20;8.00;;;;;;;-2.11;71.48;100763.55;107672;1272;110758;-75
2022/03/08 05:13:39;;;;;;;15.30;7.10;;;;;;;-2.08;71.69;100765.85;107652;1273;107605;-75
2022/03/08 05:16:12;;;;;;;13.90;7.30;;;;;;;-2.03;71.64;100763.44;107317;1273;138303;-75
2022/03/08 05:18:45;;;;;;;14.10;8.20;;;;;;;-1.92;71.66;100765.80;107665;1271;94508;-75
2022/03/08 05:21:17;;;;;;;19.20;8.40;;;;;;;-1.89;71.64;100769.45;107544;1271;137658;-75
2022/03/08 05:23:50;;;;;;;14.60;8.60;;;;;;;-1.83;71.88;100777.42;107650;1271;110194;-76
2022/03/08 05:26:25;;;;;;;16.30;9.00;;;;;;;-1.77;71.85;100787.66;107284;1271;139516;-75
2022/03/08 05:29:02;;;;;;;15.30;9.10;;;;;;;-1.74;71.95;100787.56;105936;1273;108913;-76
2022/03/08 05:31:38;;;;;;;18.90;9.90;;;;;;;-1.74;72.06;100788.59;107564;1273;94909;-75
2022/03/08 05:34:11;;;;;;;18.70;10.30;;;;;;;-1.74;71.78;100788.58;107557;1273;137262;-76
2022/03/08 05:36:43;;;;;;;21.00;10.20;;;;;;;-1.74;72.14;100788.58;107441;1273;110722;-76
2022/03/08 05:39:16;;;;;;;21.50;12.50;;;;;;;-1.73;72.43;100787.59;107422;1273;139644;-77
2022/03/08 05:41:48;;;;;;;20.80;12.90;;;;;;;-1.70;72.44;100790.58;107592;1271;108377;-76
2022/03/08 05:44:20;;;;;;;23.60;14.10;;;;;;;-1.66;72.65;100790.98;107459;1273;139739;-76
2022/03/08 05:46:53;;;;;;;28.90;14.80;;;;;;;-1.64;72.42;100789.50;107672;1271;94765;-76
2022/03/08 05:49:26;;;;;;;33.30;18.10;;;;;;;-1.65;72.51;100792.90;107650;1271;111031;-76
2022/03/08 05:51:58;;;;;;;27.20;15.70;;;;;;;-1.66;72.64;100807.89;107440;1273;139888;-76
2022/03/08 05:54:31;;;;;;;27.30;15.90;;;;;;;-1.66;72.82;100810.77;107677;1271;107777;-76
2022/03/08 05:57:05;;;;;;;33.20;16.70;;;;;;;-1.67;72.77;100811.95;107343;1271;138608;-77
2022/03/08 05:59:38;;;;;;;27.70;16.80;;;;;;;-1.65;72.75;100812.48;107595;1273;94819;-77
2022/03/08 06:02:12;;;;;;;29.40;16.50;;;;;;;-1.60;72.58;100812.30;107409;1273;139809;-76
2022/03/08 06:04:46;;;;;;;26.10;15.00;;;;;;;-1.52;72.72;100815.92;107551;1273;108991;-76
2022/03/08 06:07:21;;;;;;;26.30;15.90;;;;;;;-1.47;72.67;100816.90;107637;1271;108838;-76
2022/03/08 06:09:53;;;;;;;25.50;15.20;;;;;;;-1.43;72.69;100820.93;107416;1273;138328;-77
2022/03/08 06:12:27;;;;;;;34.00;18.00;;;;;;;-1.36;72.44;100833.38;107627;1271;94394;-76
2022/03/08 06:15:00;;;;;;;46.80;20.00;;;;;;;-1.31;72.56;100841.36;107602;1271;137793;-76
2022/03/08 06:17:32;;;;;;;39.80;20.50;;;;;;;-1.25;72.19;100843.93;107646;1271;108887;-77
2022/03/08 06:20:07;;;;;;;40.30;20.10;;;;;;;-1.18;72.43;100849.70;107429;1273;138526;-76
2022/03/08 06:22:40;;;;;;;45.30;22.80;;;;;;;-1.12;72.64;100852.56;107668;1271;94867;-76
2022/03/08 06:25:13;;;;;;;41.80;22.60;;;;;;;-1.08;72.29;100850.81;107633;1271;96127;-75
2022/03/08 06:27:46;;;;;;;40.60;22.30;;;;;;;-1.06;72.36;100838.93;107501;1272;138341;-75
2022/03/08 06:30:19;;;;;;;42.20;22.70;;;;;;;-1.04;72.53;100842.71;107671;1271;107774;-76
2022/03/08 06:32:52;;;;;;;39.00;21.50;;;;;;;-1.05;72.19;100846.96;107354;1273;138696;-76
2022/03/08 06:35:25;;;;;;;38.00;21.00;;;;;;;-1.02;72.17;100846.70;107636;1273;95077;-76
2022/03/08 06:37:58;;;;;;;38.80;22.40;;;;;;;-0.97;72.40;100842.73;107529;1273;139415;-76
2022/03/08 06:40:35;;;;;;;36.60;22.80;;;;;;;-0.88;72.62;100837.62;107627;1273;110116;-77
2022/03/08 06:43:08;;;;;;;41.80;25.50;;;;;;;-0.81;72.47;100840.54;107677;1271;106849;-76
2022/03/08 06:45:41;;;;;;;44.30;24.90;;;;;;;-0.75;72.18;100843.39;107509;1271;138420;-77
2022/03/08 06:48:13;;;;;;;45.70;27.60;;;;;;;-0.73;72.12;100846.88;107590;1271;95110;-76
2022/03/08 06:50:46;;;;;;;47.80;28.40;;;;;;;-0.76;71.75;100852.59;107412;1272;138213;-73
2022/03/08 06:53:19;;;;;;;46.40;29.20;;;;;;;-0.77;71.89;100857.36;107584;1273;110336;-75
2022/03/08 06:55:52;;;;;;;50.00;28.80;;;;;;;-0.78;72.04;100858.00;107517;1273;108418;-75
2022/03/08 06:58:26;;;;;;;44.20;25.80;;;;;;;-0.74;72.12;100859.81;107427;1272;139628;-75
2022/03/08 07:00:58;;;;;;;38.20;25.10;;;;;;;-0.66;71.93;100866.49;107609;1271;97611;-74
2022/03/08 07:03:31;;;;;;;27.40;19.30;;;;;;;-0.57;72.06;100866.35;107493;1271;138709;-76
2022/03/08 07:06:05;;;;;;;27.90;17.70;;;;;;;-0.51;71.78;100859.50;107556;1271;112235;-75
2022/03/08 07:08:37;;;;;;;25.60;17.60;;;;;;;-0.45;71.90;100863.05;107362;1273;138961;-76
2022/03/08 07:11:10;;;;;;;28.60;18.40;;;;;;;-0.35;71.99;100861.90;107617;1271;106998;-75
2022/03/08 07:13:42;;;;;;;36.90;24.10;;;;;;;-0.22;71.52;100862.67;106573;1273;98578;-75
2022/03/08 07:16:15;;;;;;;38.50;23.80;;;;;;;-0.15;71.80;100861.83;105741;1273;138001;-75
2022/03/08 07:18:47;;;;;;;33.30;23.30;;;;;;;-0.08;71.44;100863.84;105973;1273;113506;-75
2022/03/08 07:21:19;;;;;;;34.90;23.80;;;;;;;-0.01;71.60;100864.33;105835;1273;138634;-76
2022/03/08 07:23:52;;;;;;;37.80;25.60;;;;;;;0.04;71.56;100863.94;105985;1272;106905;-76
2022/03/08 07:26:25;;;;;;;36.60;24.10;;;;;;;0.11;71.71;100871.40;105825;1273;138688;-72
2022/03/08 07:28:58;;;;;;;34.60;24.70;;;;;;;0.13;71.33;100874.19;105965;1271;97839;-75
2022/03/08 07:31:30;;;;;;;32.10;23.00;;;;;;;0.09;71.16;100875.64;106049;1272;110623;-73
2022/03/08 07:34:03;;;;;;;30.70;21.50;;;;;;;0.00;71.17;100881.80;105847;1273;138517;-74
2022/03/08 07:36:37;;;;;;;35.60;24.10;;;;;;;-0.12;71.55;100883.25;105991;1271;108515;-73
2022/03/08 07:39:10;;;;;;;39.20;25.60;;;;;;;-0.21;71.54;100891.25;105670;1274;139658;-73
2022/03/08 07:41:42;;;;;;;39.10;25.70;;;;;;;-0.24;71.60;100891.69;107601;1273;96298;-73
2022/03/08 07:44:14;;;;;;;35.60;24.60;;;;;;;-0.23;71.51;100894.78;107523;1271;138346;-72
2022/03/08 07:46:50;;;;;;;27.80;19.80;;;;;;;-0.21;71.96;100894.84;107390;1271;107962;-73
2022/03/08 07:49:22;;;;;;;26.60;18.60;;;;;;;-0.25;71.71;100897.66;105962;1273;108675;-75
2022/03/08 07:51:58;;;;;;;26.20;18.80;;;;;;;-0.29;71.53;100903.90;105738;1273;139818;-72
2022/03/08 07:54:33;;;;;;;19.20;13.50;;;;;;;-0.38;71.54;100906.94;105966;1273;97906;-74
2022/03/08 07:57:08;;;;;;;17.10;12.50;;;;;;;-0.43;72.08;100905.45;105813;1271;139526;-73
2022/03/08 07:59:40;;;;;;;18.40;12.20;;;;;;;-0.46;71.81;100898.90;105967;1273;107237;-71
2022/03/08 08:02:13;;;;;;;15.80;11.70;;;;;;;-0.42;72.06;100899.65;106010;1269;139530;-73
2022/03/08 08:04:46;;;;;;;13.50;11.10;;;;;;;-0.40;72.03;100895.61;106051;1271;98103;-72
2022/03/08 08:07:18;;;;;;;15.90;11.50;;;;;;;-0.37;72.36;100892.94;105986;1272;98248;-73
2022/03/08 08:09:51;;;;;;;14.40;12.00;;;;;;;-0.36;72.20;100893.13;105917;1271;137940;-73
2022/03/08 08:12:24;;;;;;;16.30;12.30;;;;;;;-0.39;71.82;100891.36;105912;1270;107889;-73
2022/03/08 08:14:57;;;;;;;17.90;12.50;;;;;;;-0.39;71.81;100892.04;105927;1271;137982;-74
2022/03/08 08:17:31;;;;;;;18.30;13.30;;;;;;;-0.34;72.13;100892.17;106140;1271;97909;-73
2022/03/08 08:20:06;;;;;;;18.10;13.00;;;;;;;-0.30;72.29;100892.94;106252;1270;97888;-74
2022/03/08 08:22:42;;;;;;;22.40;14.20;;;;;;;-0.25;72.02;100898.15;106058;1271;138338;-73
2022/03/08 08:25:16;;;;;;;19.80;11.90;;;;;;;-0.25;71.96;100898.34;106090;1271;107826;-74
2022/03/08 08:27:50;;;;;;;14.20;11.90;;;;;;;-0.25;71.78;100898.68;106073;1271;139666;-74
2022/03/08 08:30:22;;;;;;;18.30;12.40;;;;;;;-0.21;72.06;100900.99;106059;1271;99517;-74
2022/03/08 08:32:57;;;;;;;16.70;12.00;;;;;;;-0.16;71.86;100901.45;106054;1271;137975;-76
2022/03/08 08:35:32;;;;;;;17.00;12.70;;;;;;;-0.12;72.02;100893.67;106141;1271;112294;-75
2022/03/08 08:38:11;;;;;;;16.50;12.90;;;;;;;-0.12;71.49;100890.25;106190;1271;107639;-74
2022/03/08 08:40:55;;;;;;;19.00;13.10;;;;;;;-0.10;71.72;100885.52;107002;1271;137924;-74
2022/03/08 08:43:29;;;;;;;17.00;13.40;;;;;;;-0.06;71.94;100879.94;107644;1271;96077;-78
2022/03/08 08:46:05;;;;;;;19.60;14.30;;;;;;;-0.03;71.80;100883.77;107201;1271;137831;-72
2022/03/08 08:48:38;;;;;;;25.30;14.50;;;;;;;0.04;71.51;100882.56;106167;1270;112184;-73
2022/03/08 08:51:13;;;;;;;19.70;15.20;;;;;;;0.11;71.71;100883.03;106027;1270;138765;-74
2022/03/08 08:53:47;;;;;;;17.00;14.00;;;;;;;0.15;71.76;100886.52;105975;1271;108334;-74
2022/03/08 08:56:20;;;;;;;21.20;13.80;;;;;;;0.22;71.61;100875.92;105988;1271;97962;-74
2022/03/08 08:58:54;;;;;;;20.90;15.20;;;;;;;0.28;71.40;100871.41;105952;1271;137734;-74
2022/03/08 09:01:28;;;;;;;22.70;15.80;;;;;;;0.36;71.45;100879.60;106041;1271;111468;-74
2022/03/08 09:04:01;;;;;;;21.20;16.80;;;;;;;0.41;71.27;100879.20;106018;1270;138740;-74
2022/03/08 09:06:33;;;;;;;21.40;17.20;;;;;;;0.40;71.07;100875.23;105957;1270;108831;-75
2022/03/08 09:09:09;;;;;;;21.30;16.70;;;;;;;0.38;70.98;100869.73;105906;1270;139070;-74
2022/03/08 09:11:42;;;;;;;22.90;16.70;;;;;;;0.37;71.13;100864.76;106119;1270;97924;-74
2022/03/08 09:14:14;;;;;;;20.50;15.90;;;;;;;0.43;71.00;100857.16;106118;1270;110455;-74
2022/03/08 09:16:47;;;;;;;25.30;16.90;;;;;;;0.52;70.96;100856.30;106009;1270;138069;-73
2022/03/08 09:19:23;;;;;;;21.40;15.30;;;;;;;0.66;70.98;100853.63;105951;1271;109084;-77
2022/03/08 09:21:55;;;;;;;18.80;14.30;;;;;;;0.78;70.87;100851.63;105797;1271;138700;-75
2022/03/08 09:24:28;;;;;;;20.60;13.30;;;;;;;0.88;70.62;100851.45;106079;1272;97826;-76
2022/03/08 09:27:01;;;;;;;17.40;13.70;;;;;;;0.97;70.16;100847.48;105933;1270;139687;-76
2022/03/08 09:29:34;;;;;;;15.60;13.10;;;;;;;1.11;70.33;100843.09;106045;1270;105614;-78
2022/03/08 09:32:08;;;;;;;17.40;12.60;;;;;;;1.23;70.10;100840.36;107634;1271;108696;-75
2022/03/08 09:34:40;;;;;;;14.90;11.80;;;;;;;1.32;69.61;100836.40;107452;1270;137944;-76
2022/03/08 09:37:13;;;;;;;13.80;11.00;;;;;;;1.37;69.29;100834.23;107603;1271;95890;-75
2022/03/08 09:39:46;;;;;;;16.10;11.40;;;;;;;1.40;68.76;100836.66;107610;1270;137833;-75
2022/03/08 09:42:19;;;;;;;15.30;12.00;;;;;;;1.49;68.84;100843.33;107589;1271;107925;-76
2022/03/08 09:44:51;;;;;;;16.30;11.70;;;;;;;1.63;68.67;100836.48;107628;1271;139266;-75
2022/03/08 09:47:24;;;;;;;15.20;11.80;;;;;;;1.68;68.32;100831.07;107669;1271;96196;-77
2022/03/08 09:49:57;;;;;;;16.10;12.20;;;;;;;1.72;68.20;100823.75;107718;1269;98176;-76
2022/03/08 09:52:29;;;;;;;15.30;12.10;;;;;;;1.73;68.00;100821.02;107637;1270;137603;-75
2022/03/08 09:55:02;;;;;;;17.40;13.40;;;;;;;1.76;67.64;100828.41;107714;1270;109710;-75
2022/03/08 09:57:34;;;;;;;23.10;17.50;;;;;;;1.77;67.44;100830.15;107559;1271;139097;-77
2022/03/08 10:00:10;;;;;;;27.20;20.30;;;;;;;1.77;67.56;100829.13;107677;1271;96419;-77
2022/03/08 10:02:50;;;;;;;30.10;22.30;;;;;;;1.78;67.65;100827.94;107617;1271;138264;-77
2022/03/08 10:05:26;;;;;;;31.00;21.30;;;;;;;1.82;67.54;100818.40;107729;1271;113069;-75
2022/03/08 10:08:21;;;;;;;25.60;18.20;;;;;;;1.86;67.34;100821.35;107578;1271;107789;-76
2022/03/08 10:10:58;;;;;;;21.40;16.20;;;;;;;1.91;67.33;100822.09;107468;1270;138339;-75
2022/03/08 10:13:49;;;;;;;22.30;15.10;;;;;;;1.98;66.96;100824.08;107750;1270;96162;-76
2022/03/08 10:16:24;;;;;;;16.30;13.30;;;;;;;2.04;66.75;100817.28;107592;1271;138034;-76
2022/03/08 10:18:58;;;;;;;17.80;12.60;;;;;;;2.16;66.55;100813.81;107660;1271;111790;-75
2022/03/08 10:21:33;;;;;;;14.10;12.00;;;;;;;2.52;66.31;100810.75;107569;1271;137864;-77
2022/03/08 10:24:15;;;;;;;13.00;11.30;;;;;;;3.23;66.72;100807.90;107378;1270;108942;-76
2022/03/08 10:26:53;;;;;;;15.90;11.80;;;;;;;3.99;65.64;100801.23;107456;1270;138168;-76
2022/03/08 10:29:30;;;;;;;14.10;11.00;;;;;;;4.48;64.53;100799.45;107309;1271;96661;-76
2022/03/08 10:32:16;;;;;;;12.50;9.20;;;;;;;5.00;63.68;100799.65;107406;1271;111784;-75
2022/03/08 10:34:52;;;;;;;35.50;22.30;;;;;;;5.65;62.34;100790.04;107337;1271;138523;-76
2022/03/08 10:37:27;;;;;;;12.10;9.90;;;;;;;6.11;61.60;100790.92;107283;1271;109279;-76
2022/03/08 10:40:01;;;;;;;11.80;10.20;;;;;;;6.33;60.66;100797.36;107223;1271;138431;-76
2022/03/08 10:42:36;;;;;;;12.30;9.70;;;;;;;6.41;59.45;100793.50;107389;1271;97094;-76
2022/03/08 10:45:13;;;;;;;11.80;9.20;;;;;;;6.48;58.88;100790.69;107228;1271;139625;-75
2022/03/08 10:47:50;;;;;;;15.40;9.80;;;;;;;6.73;58.86;100789.13;107455;1271;107573;-76
2022/03/08 10:50:24;;;;;;;12.50;9.80;;;;;;;6.90;58.02;100788.48;107547;1271;107656;-76
2022/03/08 10:52:59;;;;;;;13.30;9.70;;;;;;;6.97;57.62;100783.73;107068;1271;140021;-75
2022/03/08 10:55:34;;;;;;;10.80;9.40;;;;;;;7.34;57.62;100781.31;107535;1271;97627;-75
2022/03/08 10:58:08;;;;;;;12.40;9.50;;;;;;;7.69;56.61;100775.90;107596;1271;138544;-76
2022/03/08 11:00:43;;;;;;;11.20;9.90;;;;;;;7.81;56.55;100776.95;107716;1270;109103;-76
2022/03/08 11:03:17;;;;;;;14.50;9.00;;;;;;;8.34;56.60;100778.34;107480;1271;138001;-76
2022/03/08 11:05:52;;;;;;;10.70;8.00;;;;;;;8.90;56.45;100770.90;107667;1271;96252;-75
2022/03/08 11:08:27;;;;;;;11.90;7.90;;;;;;;9.53;55.57;100761.58;107595;1271;95890;-76
2022/03/08 11:11:00;;;;;;;10.70;7.50;;;;;;;10.21;54.93;100754.60;107645;1270;138418;-75
2022/03/08 11:13:33;;;;;;;15.60;7.40;;;;;;;10.83;53.40;100754.70;107708;1271;109077;-75
2022/03/08 11:16:07;;;;;;;12.40;7.70;;;;;;;11.05;52.06;100750.50;107572;1271;139442;-73
2022/03/08 11:18:40;;;;;;;12.20;8.40;;;;;;;11.02;51.04;100748.66;107605;1271;96016;-76
2022/03/08 11:21:14;;;;;;;12.00;7.30;;;;;;;11.25;50.62;100740.58;107562;1270;138298;-74
2022/03/08 11:23:47;;;;;;;10.50;7.30;;;;;;;11.51;49.72;100733.58;107497;1271;111444;-73
2022/03/08 11:26:25;;;;;;;10.50;6.70;;;;;;;11.44;48.37;100740.90;107532;1271;109155;-75
2022/03/08 11:29:03;;;;;;;12.00;6.50;;;;;;;11.11;47.92;100734.83;107423;1270;140130;-74
2022/03/08 11:31:39;;;;;;;6.70;5.70;;;;;;;10.64;47.18;100731.88;107546;1270;97111;-74